King Bee — KINGBEE — position and weather

sailwx.info

Track history (hours):
 
Tides and Currents Weather Stations Pressure Air Temp Water Temp Dewpoint Dewpoint Depression Visibility Wind Speed Wind Dir Waves Ship Positions

King Bee

Last reported at 2018-Jun-19 15:28 UTC. Time now 2018-Jun-19 15:45 UTC.
Position N 38°32' W 028°38'.

Length 15 m.

Type: Sailing vessel. MMSI: 431000933.

Date/timePositionNaut miles runAvg speedWind from/ knotsBaromVisibWave heightAir tempDewpointWater temp
2018-Jun-19 15:28N 38°32' W 028°38'0 0.0
2018-Jun-19 14:58N 38°32' W 028°38'0 0.0
2018-Jun-19 14:28N 38°32' W 028°38'0 0.0
2018-Jun-19 13:58N 38°32' W 028°38'0 0.0
2018-Jun-19 13:28N 38°32' W 028°38'0 0.0
2018-Jun-19 12:58N 38°32' W 028°38'0 0.0
2018-Jun-19 12:28N 38°32' W 028°38'0 0.0
2018-Jun-19 11:58N 38°32' W 028°38'0 0.0
2018-Jun-19 11:28N 38°32' W 028°38'0 0.0
2018-Jun-19 10:58N 38°32' W 028°38'0 0.0
2018-Jun-19 10:28N 38°32' W 028°38'0 0.0
2018-Jun-19 09:55N 38°32' W 028°38'0 0.0
2018-Jun-19 09:28N 38°32' W 028°38'0 0.0
2018-Jun-19 08:58N 38°32' W 028°38'0 0.0
2018-Jun-19 08:28N 38°32' W 028°38'0 0.0
2018-Jun-19 07:58N 38°32' W 028°38'  
2018-Jun-15 17:10N 38°32' W 028°38'0 0.0
2018-Jun-15 16:58N 38°32' W 028°38'0 0.0
2018-Jun-15 16:28N 38°32' W 028°38'0 0.0
2018-Jun-15 15:58N 38°32' W 028°38'0 0.0
2018-Jun-15 15:28N 38°32' W 028°38'0 0.0
2018-Jun-15 14:58N 38°32' W 028°38'0 0.0
2018-Jun-15 14:28N 38°32' W 028°38'0 0.0
2018-Jun-15 13:58N 38°32' W 028°38'0 0.0
2018-Jun-15 13:28N 38°32' W 028°38'1 1.9
2018-Jun-15 13:00N 38°31' W 028°37'3 6.0
2018-Jun-15 12:30N 38°30' W 028°40'3 5.7
2018-Jun-15 12:00N 38°30' W 028°44'3 5.4
2018-Jun-15 11:30N 38°29' W 028°47'3 5.2
2018-Jun-15 11:00N 38°29' W 028°51'3 5.3
2018-Jun-15 10:30N 38°28' W 028°54'3 5.4
2018-Jun-15 10:00N 38°27' W 028°57'3 5.5
2018-Jun-15 09:30N 38°27' W 029°01'3 5.3
2018-Jun-15 09:00N 38°27' W 029°04'3 5.4
2018-Jun-15 08:29N 38°26' W 029°08'3 5.2
2018-Jun-15 08:00N 38°25' W 029°11'8 5.4
2018-Jun-15 06:31N 38°24' W 029°21'1 6.0
2018-Jun-15 06:19N 38°23' W 029°22'3 6.0
2018-Jun-15 05:53N 38°23' W 029°26'  
Track history (hours):
 
Tides and Currents Weather Stations Pressure Air Temp Water Temp Dewpoint Dewpoint Depression Visibility Wind Speed Wind Dir Waves Ship Positions

King Bee

Last reported at 2018-Jun-19 15:28 UTC. Time now 2018-Jun-19 15:45 UTC.
Position N 38°32' W 028°38'.

Length 15 m.

Type: Sailing vessel. MMSI: 431000933.

Date/timePositionNaut miles runAvg speedWind from/ knotsBaromVisibWave heightAir tempDewpointWater temp
2018-Jun-19 15:28N 38°32' W 028°38'0 0.0
2018-Jun-19 14:58N 38°32' W 028°38'0 0.0
2018-Jun-19 14:28N 38°32' W 028°38'0 0.0
2018-Jun-19 13:58N 38°32' W 028°38'0 0.0
2018-Jun-19 13:28N 38°32' W 028°38'0 0.0
2018-Jun-19 12:58N 38°32' W 028°38'0 0.0
2018-Jun-19 12:28N 38°32' W 028°38'0 0.0
2018-Jun-19 11:58N 38°32' W 028°38'0 0.0
2018-Jun-19 11:28N 38°32' W 028°38'0 0.0
2018-Jun-19 10:58N 38°32' W 028°38'0 0.0
2018-Jun-19 10:28N 38°32' W 028°38'0 0.0
2018-Jun-19 09:55N 38°32' W 028°38'0 0.0
2018-Jun-19 09:28N 38°32' W 028°38'0 0.0
2018-Jun-19 08:58N 38°32' W 028°38'0 0.0
2018-Jun-19 08:28N 38°32' W 028°38'0 0.0
2018-Jun-19 07:58N 38°32' W 028°38'  
2018-Jun-15 17:10N 38°32' W 028°38'0 0.0
2018-Jun-15 16:58N 38°32' W 028°38'0 0.0
2018-Jun-15 16:28N 38°32' W 028°38'0 0.0
2018-Jun-15 15:58N 38°32' W 028°38'0 0.0
2018-Jun-15 15:28N 38°32' W 028°38'0 0.0
2018-Jun-15 14:58N 38°32' W 028°38'0 0.0
2018-Jun-15 14:28N 38°32' W 028°38'0 0.0
2018-Jun-15 13:58N 38°32' W 028°38'0 0.0
2018-Jun-15 13:28N 38°32' W 028°38'1 1.9
2018-Jun-15 13:00N 38°31' W 028°37'3 6.0
2018-Jun-15 12:30N 38°30' W 028°40'3 5.7
2018-Jun-15 12:00N 38°30' W 028°44'3 5.4
2018-Jun-15 11:30N 38°29' W 028°47'3 5.2
2018-Jun-15 11:00N 38°29' W 028°51'3 5.3
2018-Jun-15 10:30N 38°28' W 028°54'3 5.4
2018-Jun-15 10:00N 38°27' W 028°57'3 5.5
2018-Jun-15 09:30N 38°27' W 029°01'3 5.3
2018-Jun-15 09:00N 38°27' W 029°04'3 5.4
2018-Jun-15 08:29N 38°26' W 029°08'3 5.2
2018-Jun-15 08:00N 38°25' W 029°11'8 5.4
2018-Jun-15 06:31N 38°24' W 029°21'1 6.0
2018-Jun-15 06:19N 38°23' W 029°22'3 6.0
2018-Jun-15 05:53N 38°23' W 029°26'  

Dump ship's entire track history